Decoded Metar for RCTP (TAIPEI in TAIWAN) (IATA:TPE) | Meteo·Mobile Aviation Weather
aviador You're here:

RCTP Decoded Metar

TAIPEI in TAIWAN
Report Time2018-10-22 14:00:00
UTC Time2018-10-22 14:22:32
Flight Rules mvfr MVFR
Wind360° at 05 kt
W.Decomp.*RWY 05: 3.5 kt HW 3.6 kt LCW
Visibility9999 m
Phenomena:Light Drizzle
Clouds:Scattered 009 Hf
Broken 014 Hf
Broken 080 Hf
Expected CloudBase > 400 ft AGL from Temp-Dew spread
Ceiling1,400 ft
Temp24°C (ISA +9)
Dew Point23°C (94% RH)
QNH1016 hPa
Density Alt1,444 ft
Elevation108 ft
Report Wrong Elevation
Raw Report
METAR RCTP 221400Z 36005KT 9999 -DZ SCT009 BKN014 BKN080 24/23 Q1016
NOSIG RMK A3002=

Extra information for RCTP:More info

Metar Taf Metar & Taf Last 4 Metars F.Rules Stats Wind Profile Meteogram Temp Stats Airport Information Weather charts Add Link Nearby VenuesMetar ALERT Operation Metar Decoded Social comments